Time;durP1;ratioP1;P1;durP2;ratioP2;P2;SDS_P1;SDS_P2;PMS_P1;PMS_P2;Temp;Humidity;BMP_temperature;BMP_pressure;BME280_temperature;BME280_humidity;BME280_pressure;Samples;Min_cycle;Max_cycle;Signal;HPM_P1;HPM_P2
2023/12/22 00:02:18;;;;;;;0.00;0.00;;;;;;;7.79;100.00;148116.69;5004357;28;20308;-63
2023/12/22 00:04:45;;;;;;;0.00;0.00;;;;;;;7.74;100.00;148104.25;5007121;28;20243;-61
2023/12/22 00:07:11;;;;;;;0.00;0.00;;;;;;;7.68;100.00;148090.59;5004116;28;20232;-53
2023/12/22 00:09:39;;;;;;;0.00;0.00;;;;;;;7.66;100.00;148084.38;4971003;28;20684;-62
2023/12/22 00:12:06;;;;;;;0.00;0.00;;;;;;;7.71;100.00;148096.78;4990689;28;20237;-62
2023/12/22 00:14:33;;;;;;;0.07;0.07;;;;;;;7.73;100.00;148101.75;4981474;28;20241;-62
2023/12/22 00:16:59;;;;;;;0.00;0.00;;;;;;;7.68;100.00;148090.59;4991718;28;20235;-62
2023/12/22 00:19:26;;;;;;;0.00;0.00;;;;;;;7.63;100.00;148078.16;5004956;28;20220;-62
2023/12/22 00:21:53;;;;;;;0.00;0.00;;;;;;;7.61;100.00;148073.19;5006726;28;20595;-62
2023/12/22 00:24:19;;;;;;;0.00;0.00;;;;;;;7.66;100.00;148084.38;5004234;28;20220;-63
2023/12/22 00:26:47;;;;;;;0.00;0.00;;;;;;;7.57;100.00;148061.97;5007151;28;20241;-62
2023/12/22 00:29:14;;;;;;;0.00;0.00;;;;;;;7.54;100.00;148057.00;5002621;28;20392;-62
2023/12/22 00:31:40;;;;;;;0.00;0.00;;;;;;;7.54;100.00;148055.78;5004704;28;20229;-63
2023/12/22 00:34:07;;;;;;;0.00;0.00;;;;;;;7.58;100.00;148064.47;4985873;28;20216;-62
2023/12/22 00:36:34;;;;;;;0.00;0.00;;;;;;;7.53;100.00;148053.31;5006735;28;20240;-63
2023/12/22 00:39:00;;;;;;;0.00;0.00;;;;;;;7.52;100.00;148052.03;5006572;28;20227;-62
2023/12/22 00:41:27;;;;;;;0.00;0.00;;;;;;;7.52;100.00;148050.81;5004335;28;20225;-62
2023/12/22 00:43:55;;;;;;;0.00;0.00;;;;;;;7.57;100.00;148063.25;5005014;28;20263;-62
2023/12/22 00:46:21;;;;;;;0.00;0.00;;;;;;;7.59;100.00;148068.22;5003221;28;20324;-62
2023/12/22 00:48:48;;;;;;;0.00;0.00;;;;;;;7.58;100.00;148064.47;5006173;28;20235;-60
2023/12/22 00:51:16;;;;;;;0.00;0.00;;;;;;;7.54;100.00;148055.78;5002248;28;20233;-60
2023/12/22 00:53:43;;;;;;;0.00;0.00;;;;;;;7.52;100.00;148052.03;5005747;28;20294;-59
2023/12/22 00:56:12;;;;;;;0.00;0.00;;;;;;;7.47;100.00;148039.63;5003020;28;20687;-60
2023/12/22 00:58:39;;;;;;;0.00;0.00;;;;;;;7.48;100.00;148042.09;5006622;28;20237;-60
2023/12/22 01:01:07;;;;;;;0.00;0.00;;;;;;;7.43;100.00;148029.66;5005373;28;20687;-61
2023/12/22 01:03:34;;;;;;;0.00;0.00;;;;;;;7.47;100.00;148039.63;5002190;28;20235;-60
2023/12/22 01:06:00;;;;;;;0.00;0.00;;;;;;;7.43;100.00;148028.44;4997312;28;20228;-61
2023/12/22 01:08:27;;;;;;;0.00;0.00;;;;;;;7.42;100.00;148027.19;4986326;28;20263;-61
2023/12/22 01:10:53;;;;;;;0.00;0.00;;;;;;;7.40;100.00;148022.25;5005374;28;20232;-60
2023/12/22 01:13:20;;;;;;;0.07;0.07;;;;;;;7.48;100.00;148040.88;5002130;28;20223;-61
2023/12/22 01:15:47;;;;;;;0.00;0.00;;;;;;;7.34;100.00;148007.34;4997186;28;20229;-61
2023/12/22 01:18:14;;;;;;;0.00;0.00;;;;;;;6.03;100.00;147694.34;5003369;28;20224;-58
2023/12/22 01:20:41;;;;;;;0.00;0.00;;;;;;;5.72;100.00;147618.56;5005017;28;20243;-60
2023/12/22 01:23:08;;;;;;;0.00;0.00;;;;;;;5.63;100.00;147596.22;4999813;28;20232;-60
2023/12/22 01:25:34;;;;;;;0.00;0.00;;;;;;;5.58;100.00;147585.03;5005479;28;20232;-60
2023/12/22 01:28:01;;;;;;;0.00;0.00;;;;;;;5.55;100.00;147577.59;5005360;28;20226;-60
2023/12/22 01:30:27;;;;;;;0.00;0.00;;;;;;;5.56;100.00;147580.06;5002977;28;20240;-61
2023/12/22 01:32:54;;;;;;;0.00;0.00;;;;;;;5.62;100.00;147594.97;5003752;28;20256;-61
2023/12/22 01:35:22;;;;;;;0.00;0.00;;;;;;;5.70;100.00;147614.84;5001681;28;20220;-61
2023/12/22 01:37:49;;;;;;;0.00;0.00;;;;;;;5.84;100.00;147647.09;5006076;28;20228;-60
2023/12/22 01:40:15;;;;;;;0.00;0.00;;;;;;;5.86;100.00;147652.06;5000658;28;20722;-60
2023/12/22 01:42:42;;;;;;;0.00;0.00;;;;;;;5.93;100.00;147669.44;4981519;28;20235;-60
2023/12/22 01:45:08;;;;;;;0.00;0.00;;;;;;;5.99;100.00;147684.34;4998433;28;20225;-60
2023/12/22 01:47:36;;;;;;;0.00;0.00;;;;;;;5.99;100.00;147683.09;5003517;28;20239;-60
2023/12/22 01:50:03;;;;;;;0.00;0.00;;;;;;;6.08;100.00;147705.50;5002845;28;20266;-60
2023/12/22 01:52:31;;;;;;;0.00;0.00;;;;;;;6.17;100.00;147726.63;4998937;28;20236;-60
2023/12/22 01:54:58;;;;;;;0.00;0.00;;;;;;;6.19;100.00;147731.59;4985212;28;20222;-60
2023/12/22 01:57:24;;;;;;;0.00;0.00;;;;;;;6.19;100.00;147732.81;4999860;28;20231;-60
2023/12/22 01:59:52;;;;;;;0.00;0.00;;;;;;;6.19;100.00;147732.81;5003178;28;20581;-60
2023/12/22 02:02:19;;;;;;;0.00;0.00;;;;;;;6.19;100.00;147731.59;5001814;28;20233;-60
2023/12/22 02:04:46;;;;;;;0.00;0.00;;;;;;;6.26;100.00;147747.72;4995159;28;20692;-60
2023/12/22 02:07:13;;;;;;;0.00;0.00;;;;;;;6.23;100.00;147740.25;4988730;28;20735;-60
2023/12/22 02:09:41;;;;;;;0.00;0.00;;;;;;;6.30;100.00;147757.66;4983235;28;20232;-59
2023/12/22 02:12:07;;;;;;;0.00;0.00;;;;;;;6.25;100.00;147745.22;4998500;28;20223;-61
2023/12/22 02:14:34;;;;;;;0.00;0.00;;;;;;;6.22;100.00;147739.03;5002314;28;20232;-60
2023/12/22 02:17:07;;;;;;;0.00;0.00;;;;;;;6.26;100.00;147747.72;5001578;28;20216;-60
2023/12/22 02:19:42;;;;;;;0.00;0.00;;;;;;;6.39;100.00;147780.00;4999814;28;20244;-59
2023/12/22 02:22:10;;;;;;;0.00;0.00;;;;;;;6.38;100.00;147777.50;4997493;28;20759;-59
2023/12/22 02:24:38;;;;;;;0.00;0.00;;;;;;;6.41;100.00;147784.97;5004087;28;20220;-60
2023/12/22 02:27:07;;;;;;;0.00;0.00;;;;;;;6.42;100.00;147787.44;5001464;28;20228;-60
2023/12/22 02:29:43;;;;;;;0.00;0.00;;;;;;;6.29;100.00;147755.16;5001455;28;20596;-59
2023/12/22 02:32:17;;;;;;;0.00;0.00;;;;;;;6.15;100.00;147721.66;4999851;28;20232;-60
2023/12/22 02:34:48;;;;;;;0.00;0.00;;;;;;;6.03;100.00;147693.06;5003113;28;20227;-60
2023/12/22 02:37:17;;;;;;;0.00;0.00;;;;;;;5.96;100.00;147675.63;4988614;28;20703;-60
2023/12/22 02:39:45;;;;;;;0.00;0.00;;;;;;;5.83;100.00;147644.63;5002871;28;20569;-59
2023/12/22 02:42:13;;;;;;;0.00;0.00;;;;;;;5.73;100.00;147621.06;5001303;28;20258;-61
2023/12/22 02:44:39;;;;;;;0.00;0.00;;;;;;;5.65;100.00;147602.41;5003022;28;20237;-60
2023/12/22 02:47:06;;;;;;;0.00;0.00;;;;;;;5.58;100.00;147585.03;5002131;28;20322;-59
2023/12/22 02:49:33;;;;;;;0.00;0.00;;;;;;;5.58;100.00;147586.31;4999628;28;21182;-60
2023/12/22 02:52:00;;;;;;;0.00;0.00;;;;;;;5.59;100.00;147588.78;5003287;28;20228;-59
2023/12/22 02:54:29;;;;;;;0.00;0.00;;;;;;;5.56;100.00;147580.06;5000514;28;20576;-60
2023/12/22 02:56:58;;;;;;;0.00;0.00;;;;;;;5.66;100.00;147603.69;5003239;28;20231;-59
2023/12/22 02:59:25;;;;;;;0.00;0.00;;;;;;;5.73;100.00;147621.06;5000974;28;20702;-61
2023/12/22 03:01:52;;;;;;;0.00;0.00;;;;;;;5.81;100.00;147640.94;4993082;28;20687;-59
2023/12/22 03:04:18;;;;;;;0.00;0.00;;;;;;;5.86;100.00;147653.28;4982217;28;20217;-61
2023/12/22 03:06:45;;;;;;;0.00;0.00;;;;;;;5.98;100.00;147681.88;4997475;28;20257;-60
2023/12/22 03:09:12;;;;;;;0.00;0.00;;;;;;;6.02;100.00;147690.59;5003427;28;20227;-60
2023/12/22 03:11:38;;;;;;;0.00;0.00;;;;;;;6.19;100.00;147731.59;5006171;28;20237;-60
2023/12/22 03:14:06;;;;;;;0.00;0.00;;;;;;;6.25;100.00;147746.50;5006472;28;20232;-61
2023/12/22 03:16:33;;;;;;;0.00;0.00;;;;;;;6.30;100.00;147757.66;5005163;28;20228;-61
2023/12/22 03:18:59;;;;;;;0.00;0.00;;;;;;;6.53;100.00;147812.28;5006043;28;20224;-61
2023/12/22 03:21:26;;;;;;;0.00;0.00;;;;;;;6.47;100.00;147799.88;5003598;28;20220;-60
2023/12/22 03:23:53;;;;;;;0.00;0.00;;;;;;;6.56;100.00;147820.97;5008091;28;20235;-60
2023/12/22 03:26:19;;;;;;;0.00;0.00;;;;;;;6.61;100.00;147833.38;5004479;28;20224;-60
2023/12/22 03:28:46;;;;;;;0.00;0.00;;;;;;;6.70;100.00;147854.53;5008355;28;20236;-60
2023/12/22 03:31:14;;;;;;;0.00;0.00;;;;;;;6.64;100.00;147839.63;4995876;28;20688;-60
2023/12/22 03:33:41;;;;;;;0.00;0.00;;;;;;;6.67;100.00;147845.81;5004635;28;20636;-60
2023/12/22 03:36:08;;;;;;;0.00;0.00;;;;;;;6.68;100.00;147849.56;5005963;28;20223;-60
2023/12/22 03:38:34;;;;;;;0.00;0.00;;;;;;;6.72;100.00;147859.50;5003483;28;20724;-60
2023/12/22 03:41:01;;;;;;;0.00;0.00;;;;;;;6.76;100.00;147869.44;5001851;28;20224;-60
2023/12/22 03:43:28;;;;;;;0.00;0.00;;;;;;;6.82;100.00;147883.09;4999741;28;20247;-60
2023/12/22 03:45:55;;;;;;;0.00;0.00;;;;;;;6.76;100.00;147869.44;4997601;28;20228;-60
2023/12/22 03:48:23;;;;;;;0.00;0.00;;;;;;;6.81;100.00;147880.59;5001588;28;20213;-61
2023/12/22 03:50:49;;;;;;;0.00;0.00;;;;;;;6.89;100.00;147900.47;5003065;28;20229;-60
2023/12/22 03:53:16;;;;;;;0.10;0.10;;;;;;;6.85;100.00;147889.31;5002455;28;20643;-60
2023/12/22 03:55:43;;;;;;;0.00;0.00;;;;;;;6.92;100.00;147907.94;5003542;28;20233;-60
2023/12/22 03:58:10;;;;;;;0.00;0.00;;;;;;;6.86;100.00;147893.03;5004163;28;20216;-61
2023/12/22 04:04:04;;;;;;;0.00;0.00;;;;;;;6.83;100.00;147885.56;5699765;23;20227;-61
2023/12/22 04:06:31;;;;;;;0.00;0.00;;;;;;;6.82;100.00;147881.88;5017196;28;20235;-60
2023/12/22 04:08:57;;;;;;;0.00;0.00;;;;;;;6.76;100.00;147869.44;5023214;28;20698;-60
2023/12/22 04:11:24;;;;;;;0.00;0.00;;;;;;;6.70;100.00;147854.53;5021289;28;20219;-63
2023/12/22 04:13:51;;;;;;;0.00;0.00;;;;;;;6.65;100.00;147843.31;5022505;28;20235;-62
2023/12/22 04:16:18;;;;;;;0.00;0.00;;;;;;;6.66;100.00;147844.59;5016771;28;20220;-63
2023/12/22 04:18:45;;;;;;;0.00;0.00;;;;;;;6.65;100.00;147843.31;5022565;28;20226;-62
2023/12/22 04:21:13;;;;;;;0.00;0.00;;;;;;;6.63;100.00;147838.34;5020283;28;20704;-62
2023/12/22 04:23:40;;;;;;;0.00;0.00;;;;;;;6.62;100.00;147835.88;5021253;28;20224;-62
2023/12/22 04:26:06;;;;;;;0.00;0.00;;;;;;;6.67;100.00;147845.81;5023879;28;20234;-61
2023/12/22 04:28:35;;;;;;;0.00;0.00;;;;;;;6.63;100.00;147837.13;5016136;28;20229;-63
2023/12/22 04:31:01;;;;;;;0.00;0.00;;;;;;;6.68;100.00;147849.56;5265161;23;20205;-63
2023/12/22 04:33:28;;;;;;;0.00;0.00;;;;;;;6.69;100.00;147850.78;5002289;28;20236;-62
2023/12/22 04:35:55;;;;;;;0.00;0.00;;;;;;;6.72;100.00;147858.22;5007654;28;20235;-62
2023/12/22 04:38:23;;;;;;;0.00;0.00;;;;;;;6.78;100.00;147873.13;5009308;28;20537;-62
2023/12/22 04:40:49;;;;;;;0.00;0.00;;;;;;;6.75;100.00;147865.69;5006535;28;20228;-62
2023/12/22 04:43:16;;;;;;;0.00;0.00;;;;;;;6.79;100.00;147876.91;4976063;28;20225;-62
2023/12/22 04:45:42;;;;;;;0.00;0.00;;;;;;;6.83;100.00;147885.56;4979337;28;20225;-62
2023/12/22 04:48:09;;;;;;;0.00;0.00;;;;;;;6.87;100.00;147895.50;4976913;28;20222;-62
2023/12/22 04:50:36;;;;;;;0.00;0.00;;;;;;;6.92;100.00;147907.94;4979712;28;20234;-62
2023/12/22 04:53:02;;;;;;;0.00;0.00;;;;;;;6.94;100.00;147911.63;4978601;28;20256;-62
2023/12/22 04:55:30;;;;;;;0.00;0.00;;;;;;;7.01;100.00;147927.81;4978666;28;20564;-62
2023/12/22 04:57:57;;;;;;;0.00;0.00;;;;;;;7.00;100.00;147926.53;4982730;28;20236;-61
2023/12/22 05:00:23;;;;;;;0.00;0.00;;;;;;;7.03;100.00;147932.78;4978045;28;20727;-62
2023/12/22 05:02:50;;;;;;;0.10;0.10;;;;;;;6.99;100.00;147924.06;4979314;28;20246;-62
2023/12/22 05:05:16;;;;;;;0.00;0.00;;;;;;;7.08;100.00;147945.22;4965471;28;20217;-62
2023/12/22 05:07:43;;;;;;;0.00;0.00;;;;;;;7.13;100.00;147956.38;4980904;28;20233;-62
2023/12/22 05:10:10;;;;;;;0.00;0.00;;;;;;;7.11;100.00;147952.66;4976444;28;20221;-63
2023/12/22 05:12:38;;;;;;;0.00;0.00;;;;;;;7.17;100.00;147967.56;4981345;28;20768;-63
2023/12/22 05:15:05;;;;;;;0.00;0.00;;;;;;;7.17;100.00;147966.31;4981600;28;20221;-63
2023/12/22 05:17:33;;;;;;;0.00;0.00;;;;;;;7.24;100.00;147984.97;4978585;28;20723;-63
2023/12/22 05:20:00;;;;;;;0.00;0.00;;;;;;;7.24;100.00;147983.72;4980584;28;20722;-63
2023/12/22 05:22:29;;;;;;;0.00;0.00;;;;;;;7.21;100.00;147977.53;4977638;28;20666;-63
2023/12/22 05:24:56;;;;;;;0.00;0.00;;;;;;;7.20;100.00;147973.78;4980530;28;20236;-63
2023/12/22 05:27:23;;;;;;;0.00;0.00;;;;;;;7.20;100.00;147975.03;4979344;28;20225;-63
2023/12/22 05:29:51;;;;;;;0.00;0.00;;;;;;;7.20;100.00;147975.03;4975340;28;20233;-62
2023/12/22 05:32:17;;;;;;;0.00;0.00;;;;;;;7.26;100.00;147988.69;4976094;28;20254;-62
2023/12/22 05:34:44;;;;;;;0.00;0.00;;;;;;;7.22;100.00;147978.75;4980525;28;20225;-62
2023/12/22 05:37:11;;;;;;;0.00;0.00;;;;;;;7.18;100.00;147968.78;4976658;28;20237;-62
2023/12/22 05:39:38;;;;;;;0.00;0.00;;;;;;;7.16;100.00;147963.81;4975483;28;20234;-62
2023/12/22 05:42:05;;;;;;;0.00;0.00;;;;;;;7.16;100.00;147965.09;4977783;28;20237;-62
2023/12/22 05:44:33;;;;;;;0.00;0.00;;;;;;;7.16;100.00;147963.81;4976655;28;20607;-63
2023/12/22 05:47:01;;;;;;;0.00;0.00;;;;;;;7.15;100.00;147962.59;4977673;28;20708;-63
2023/12/22 05:49:31;;;;;;;0.00;0.00;;;;;;;7.12;100.00;147955.16;4977481;28;20345;-62
2023/12/22 05:51:57;;;;;;;0.00;0.00;;;;;;;7.11;100.00;147952.66;4978823;28;20238;-62
2023/12/22 05:54:25;;;;;;;0.00;0.00;;;;;;;7.12;100.00;147953.88;4973307;28;20669;-63
2023/12/22 05:56:52;;;;;;;0.00;0.00;;;;;;;7.13;100.00;147957.63;4977698;28;20257;-63
2023/12/22 05:59:19;;;;;;;0.00;0.00;;;;;;;7.12;100.00;147953.88;4976062;28;20307;-63
2023/12/22 06:01:45;;;;;;;0.00;0.00;;;;;;;7.11;100.00;147952.66;4978531;28;20237;-62
2023/12/22 06:04:13;;;;;;;0.00;0.00;;;;;;;7.21;100.00;147976.25;4974327;28;20245;-63
2023/12/22 06:06:40;;;;;;;0.00;0.00;;;;;;;7.24;100.00;147983.72;4977898;28;20233;-62
2023/12/22 06:09:06;;;;;;;0.00;0.00;;;;;;;7.24;100.00;147983.72;4980924;28;20856;-62
2023/12/22 06:11:33;;;;;;;0.00;0.00;;;;;;;7.19;100.00;147971.28;4978383;28;20258;-62
2023/12/22 06:13:59;;;;;;;0.00;0.00;;;;;;;7.20;100.00;147975.03;4980590;28;20216;-62
2023/12/22 06:16:26;;;;;;;0.00;0.00;;;;;;;7.19;100.00;147972.53;4979800;28;20234;-62
2023/12/22 06:18:53;;;;;;;0.00;0.00;;;;;;;7.17;100.00;147967.56;4978690;28;20232;-62
2023/12/22 06:21:21;;;;;;;0.00;0.00;;;;;;;7.21;100.00;147976.25;4979042;28;20229;-62
2023/12/22 06:23:47;;;;;;;0.00;0.00;;;;;;;7.29;100.00;147994.91;4971384;28;20689;-63
2023/12/22 06:26:14;;;;;;;0.00;0.00;;;;;;;7.30;100.00;147998.63;4978653;28;20709;-63
2023/12/22 06:28:41;;;;;;;0.00;0.00;;;;;;;7.30;100.00;147998.63;4978987;28;20249;-63
2023/12/22 06:31:07;;;;;;;0.00;0.00;;;;;;;7.29;100.00;147996.13;4976441;28;20236;-63
2023/12/22 06:33:34;;;;;;;0.00;0.00;;;;;;;7.35;99.36;148009.81;4973976;28;20236;-63
2023/12/22 06:36:00;;;;;;;0.00;0.00;;;;;;;7.33;100.00;148006.09;4973215;28;20269;-63
2023/12/22 06:38:28;;;;;;;0.00;0.00;;;;;;;7.41;98.89;148023.47;4974945;28;20231;-63
2023/12/22 06:40:55;;;;;;;0.00;0.00;;;;;;;7.36;99.36;148012.31;4968719;28;20244;-63
2023/12/22 06:43:22;;;;;;;0.00;0.00;;;;;;;7.33;100.00;148004.84;4974964;28;20719;-63
2023/12/22 06:45:48;;;;;;;0.00;0.00;;;;;;;7.41;97.90;148023.47;4975271;28;20325;-63
2023/12/22 06:48:15;;;;;;;0.00;0.00;;;;;;;7.39;99.24;148019.78;4975910;28;20233;-63
2023/12/22 06:50:44;;;;;;;0.00;0.00;;;;;;;7.34;100.00;148008.56;4977623;28;20678;-63
2023/12/22 06:53:11;;;;;;;0.00;0.00;;;;;;;7.30;100.00;147998.63;4974134;28;20225;-63
2023/12/22 06:55:39;;;;;;;0.00;0.00;;;;;;;7.27;100.00;147989.94;4977267;28;20239;-63
2023/12/22 06:58:05;;;;;;;0.00;0.00;;;;;;;7.28;100.00;147992.44;4976652;28;20232;-63
2023/12/22 07:00:32;;;;;;;0.00;0.00;;;;;;;7.31;100.00;148001.09;4975551;28;20238;-63
2023/12/22 07:02:58;;;;;;;0.00;0.00;;;;;;;7.35;98.92;148009.81;4976102;28;20240;-62
2023/12/22 07:05:36;;;;;;;0.00;0.00;;;;;;;7.36;99.85;148013.53;4975686;28;20715;-62
2023/12/22 07:08:05;;;;;;;0.00;0.00;;;;;;;7.39;100.00;148019.78;4977803;28;20256;-63
2023/12/22 07:10:31;;;;;;;0.00;0.00;;;;;;;7.40;98.75;148022.25;4976449;28;20306;-64
2023/12/22 07:12:59;;;;;;;0.00;0.00;;;;;;;7.46;96.59;148035.91;4979693;28;20538;-64
2023/12/22 07:15:26;;;;;;;0.00;0.00;;;;;;;7.51;96.87;148048.34;4976184;28;20244;-64
2023/12/22 07:17:52;;;;;;;0.00;0.00;;;;;;;7.55;95.28;148058.28;4979685;28;20222;-64
2023/12/22 07:20:19;;;;;;;0.00;0.00;;;;;;;7.49;96.45;148043.38;4973961;28;20237;-64
2023/12/22 07:22:46;;;;;;;0.00;0.00;;;;;;;7.52;96.16;148050.81;4978005;28;20296;-64
2023/12/22 07:25:13;;;;;;;0.00;0.00;;;;;;;7.53;96.41;148053.31;4975041;28;20233;-64
2023/12/22 07:27:39;;;;;;;0.00;0.00;;;;;;;7.56;96.09;148060.78;4978504;28;20252;-64
2023/12/22 07:30:11;;;;;;;0.00;0.00;;;;;;;7.55;96.34;148058.28;4977479;28;20228;-64
2023/12/22 07:32:38;;;;;;;0.00;0.00;;;;;;;7.59;94.33;148066.97;4975841;28;20237;-64
2023/12/22 07:35:05;;;;;;;0.00;0.00;;;;;;;7.56;96.83;148060.78;4978804;28;20225;-64
2023/12/22 07:37:31;;;;;;;0.00;0.00;;;;;;;7.59;95.25;148066.97;4964633;28;20243;-64
2023/12/22 07:39:58;;;;;;;0.00;0.00;;;;;;;7.63;95.57;148076.91;4978365;28;20232;-64
2023/12/22 07:42:24;;;;;;;0.00;0.00;;;;;;;7.66;94.23;148084.38;4977140;28;20233;-64
2023/12/22 07:44:51;;;;;;;0.00;0.00;;;;;;;7.67;94.04;148088.13;4978022;28;20221;-64
2023/12/22 07:47:19;;;;;;;0.00;0.00;;;;;;;7.70;94.28;148094.31;4975880;28;20232;-64
2023/12/22 07:49:46;;;;;;;0.00;0.00;;;;;;;7.71;94.16;148095.56;4978764;28;20232;-63
2023/12/22 07:52:12;;;;;;;0.00;0.00;;;;;;;7.71;93.79;148096.78;4973306;28;20225;-63
2023/12/22 07:54:39;;;;;;;0.03;0.03;;;;;;;7.69;94.60;148091.81;4980184;28;20237;-63
2023/12/22 07:57:06;;;;;;;0.00;0.00;;;;;;;7.72;94.16;148098.06;4980730;28;20225;-63
2023/12/22 07:59:33;;;;;;;0.00;0.00;;;;;;;7.69;95.19;148091.81;4977411;28;20229;-63
2023/12/22 08:02:00;;;;;;;0.00;0.00;;;;;;;7.65;94.74;148083.16;4981286;28;20234;-63
2023/12/22 08:04:27;;;;;;;0.00;0.00;;;;;;;7.68;94.46;148089.34;4975542;28;20233;-63
2023/12/22 08:06:53;;;;;;;0.00;0.00;;;;;;;7.67;95.56;148086.84;4982874;28;20257;-63
2023/12/22 08:09:22;;;;;;;0.10;0.10;;;;;;;7.74;93.77;148103.03;4980199;28;20230;-63
2023/12/22 08:11:52;;;;;;;0.00;0.00;;;;;;;7.71;95.32;148096.78;4980700;28;20240;-62
2023/12/22 08:14:20;;;;;;;0.00;0.00;;;;;;;7.71;95.72;148095.56;4977890;28;20232;-62
2023/12/22 08:16:46;;;;;;;0.00;0.00;;;;;;;7.69;94.87;148091.81;4980914;28;20244;-62
2023/12/22 08:19:13;;;;;;;0.00;0.00;;;;;;;7.71;95.70;148096.78;4977838;28;20234;-62
2023/12/22 08:21:43;;;;;;;0.00;0.00;;;;;;;7.75;94.70;148105.53;4981208;28;20247;-62
2023/12/22 08:24:11;;;;;;;0.00;0.00;;;;;;;7.71;95.96;148096.78;4979917;28;20305;-62
2023/12/22 08:26:37;;;;;;;0.00;0.00;;;;;;;7.73;95.43;148101.75;4979594;28;20260;-62
2023/12/22 08:29:04;;;;;;;0.00;0.00;;;;;;;7.71;95.82;148096.78;4978448;28;20241;-62
2023/12/22 08:31:30;;;;;;;0.00;0.00;;;;;;;7.68;96.22;148089.34;4980496;28;20241;-62
2023/12/22 08:33:57;;;;;;;0.00;0.00;;;;;;;7.71;95.52;148096.78;4980364;28;20237;-62
2023/12/22 08:36:24;;;;;;;0.00;0.00;;;;;;;7.71;96.27;148095.56;4977786;28;20217;-62
2023/12/22 08:38:51;;;;;;;0.00;0.00;;;;;;;7.71;95.69;148096.78;4981564;28;20221;-62
2023/12/22 08:41:18;;;;;;;0.00;0.00;;;;;;;7.68;95.43;148090.59;4974163;28;20391;-62
2023/12/22 08:43:45;;;;;;;0.00;0.00;;;;;;;7.68;95.41;148089.34;4976422;28;20233;-62
2023/12/22 08:46:12;;;;;;;0.00;0.00;;;;;;;7.67;95.58;148086.84;4978893;28;20225;-62
2023/12/22 08:48:39;;;;;;;0.00;0.00;;;;;;;7.62;96.61;148074.41;4979858;28;20229;-62
2023/12/22 08:51:05;;;;;;;0.00;0.00;;;;;;;7.67;95.39;148086.84;4978450;28;20228;-62
2023/12/22 08:53:36;;;;;;;0.00;0.00;;;;;;;7.58;98.81;148064.47;4978070;28;20241;-62
2023/12/22 08:56:07;;;;;;;0.00;0.00;;;;;;;7.57;98.87;148061.97;4981766;28;20268;-62
2023/12/22 08:58:33;;;;;;;0.00;0.00;;;;;;;7.58;98.09;148064.47;4980199;28;20743;-62
2023/12/22 09:01:00;;;;;;;0.00;0.00;;;;;;;7.58;97.55;148064.47;4982038;28;20244;-62
2023/12/22 09:03:28;;;;;;;0.00;0.00;;;;;;;7.53;100.00;148053.31;4978856;28;20218;-62
2023/12/22 09:05:54;;;;;;;0.10;0.10;;;;;;;7.61;97.46;148071.94;4980884;28;20229;-62
2023/12/22 09:08:21;;;;;;;0.00;0.00;;;;;;;7.61;97.27;148071.94;4979118;28;20237;-62
2023/12/22 09:10:47;;;;;;;0.00;0.00;;;;;;;7.68;95.48;148090.59;4979620;28;20696;-62
2023/12/22 09:13:15;;;;;;;0.00;0.00;;;;;;;7.68;96.61;148089.34;4975955;28;20214;-62
2023/12/22 09:15:42;;;;;;;0.00;0.00;;;;;;;7.66;96.12;148084.38;4982011;28;20237;-62
2023/12/22 09:18:09;;;;;;;0.00;0.00;;;;;;;7.69;96.40;148091.81;4978224;28;20740;-62
2023/12/22 09:20:35;;;;;;;0.00;0.00;;;;;;;7.79;94.22;148115.47;4979452;28;20803;-63
2023/12/22 09:23:05;;;;;;;0.00;0.00;;;;;;;7.83;93.36;148126.63;4959774;28;20234;-63
2023/12/22 09:25:31;;;;;;;0.00;0.00;;;;;;;7.86;93.34;148131.59;4974727;28;20287;-63
2023/12/22 09:27:59;;;;;;;0.00;0.00;;;;;;;7.88;93.02;148137.84;4979936;28;20732;-62
2023/12/22 09:30:27;;;;;;;0.00;0.00;;;;;;;7.87;93.93;148135.34;4975216;28;20758;-62
2023/12/22 09:32:54;;;;;;;0.00;0.00;;;;;;;7.91;91.96;148145.31;4979025;28;20245;-62
2023/12/22 09:35:21;;;;;;;0.00;0.00;;;;;;;7.95;92.73;148153.97;4977056;28;20712;-62
2023/12/22 09:37:48;;;;;;;0.00;0.00;;;;;;;7.92;93.96;148146.53;4979309;28;20229;-63
2023/12/22 09:40:15;;;;;;;0.00;0.00;;;;;;;7.88;93.14;148137.84;4951129;28;20315;-62
2023/12/22 09:42:43;;;;;;;0.00;0.00;;;;;;;7.89;93.72;148139.06;4982060;28;20581;-62
2023/12/22 09:45:12;;;;;;;0.00;0.00;;;;;;;7.91;93.81;148144.03;4975080;28;20746;-62
2023/12/22 09:47:43;;;;;;;0.00;0.00;;;;;;;7.93;94.79;148150.28;4977806;28;20236;-62
2023/12/22 09:50:10;;;;;;;0.10;0.10;;;;;;;7.90;96.63;148141.56;4976500;28;20790;-62
2023/12/22 09:52:37;;;;;;;0.00;0.00;;;;;;;7.79;100.00;148115.47;4978597;28;20233;-63
2023/12/22 09:55:05;;;;;;;0.00;0.00;;;;;;;7.54;100.00;148057.00;4979864;28;20226;-63
2023/12/22 09:57:33;;;;;;;0.00;0.00;;;;;;;7.50;100.00;148045.84;4974815;28;20712;-63
2023/12/22 10:00:01;;;;;;;0.00;0.00;;;;;;;7.51;100.00;148049.56;4978212;28;20230;-62
2023/12/22 10:02:30;;;;;;;0.00;0.00;;;;;;;7.46;100.00;148035.91;4978100;28;20240;-62
2023/12/22 10:04:58;;;;;;;0.00;0.00;;;;;;;7.47;100.00;148039.63;4977506;28;20222;-62
2023/12/22 10:07:25;;;;;;;0.00;0.00;;;;;;;7.40;100.00;148022.25;4977920;28;20724;-62
2023/12/22 10:09:53;;;;;;;0.00;0.00;;;;;;;7.37;100.00;148016.03;4981043;28;20248;-62
2023/12/22 10:12:20;;;;;;;0.03;0.03;;;;;;;7.37;100.00;148014.81;4976119;28;20241;-62
2023/12/22 10:14:48;;;;;;;0.00;0.00;;;;;;;7.36;100.00;148013.53;4980756;28;20617;-62
2023/12/22 10:17:15;;;;;;;0.00;0.00;;;;;;;7.36;100.00;148012.31;4975618;28;20225;-62
2023/12/22 10:19:42;;;;;;;0.00;0.00;;;;;;;7.43;100.00;148029.66;4980225;28;20236;-62
2023/12/22 10:22:10;;;;;;;0.00;0.00;;;;;;;7.46;100.00;148035.91;4975593;28;20220;-63
2023/12/22 10:24:43;;;;;;;0.00;0.00;;;;;;;7.32;100.00;148002.38;4980526;28;20225;-63
2023/12/22 10:27:10;;;;;;;0.00;0.00;;;;;;;7.32;100.00;148003.59;4976690;28;20581;-63
2023/12/22 10:29:37;;;;;;;0.00;0.00;;;;;;;7.31;100.00;147999.88;4978586;28;20715;-63
2023/12/22 10:32:05;;;;;;;0.00;0.00;;;;;;;7.38;100.00;148018.50;4970363;28;20320;-63
2023/12/22 10:34:33;;;;;;;0.00;0.00;;;;;;;7.40;100.00;148022.25;4976562;28;20303;-63
2023/12/22 10:37:00;;;;;;;0.00;0.00;;;;;;;7.41;100.00;148023.47;4980420;28;20719;-62
2023/12/22 10:39:30;;;;;;;0.00;0.00;;;;;;;7.51;100.00;148048.34;4975583;28;20585;-62
2023/12/22 10:41:57;;;;;;;0.00;0.00;;;;;;;7.45;100.00;148034.63;4975930;28;20248;-62
2023/12/22 10:44:25;;;;;;;0.10;0.10;;;;;;;7.56;100.00;148059.50;4976288;28;20222;-62
2023/12/22 10:46:52;;;;;;;0.00;0.00;;;;;;;7.56;100.00;148060.78;4978735;28;20726;-62
2023/12/22 10:49:19;;;;;;;0.00;0.00;;;;;;;7.54;100.00;148057.00;4976843;28;20221;-62
2023/12/22 10:51:45;;;;;;;0.00;0.00;;;;;;;7.47;100.00;148039.63;4979015;28;20237;-62
2023/12/22 10:54:12;;;;;;;0.00;0.00;;;;;;;7.41;100.00;148023.47;4975418;28;20701;-62
2023/12/22 10:56:40;;;;;;;0.00;0.00;;;;;;;7.37;100.00;148016.03;4977776;28;20677;-62
2023/12/22 10:59:07;;;;;;;0.00;0.00;;;;;;;7.35;100.00;148011.06;4977977;28;20237;-62
2023/12/22 11:01:38;;;;;;;0.00;0.00;;;;;;;7.39;100.00;148021.00;4970075;28;20698;-62
2023/12/22 11:04:07;;;;;;;0.00;0.00;;;;;;;7.34;100.00;148008.56;4978843;28;20247;-62
2023/12/22 11:06:36;;;;;;;0.00;0.00;;;;;;;7.22;100.00;147978.75;4975109;28;21089;-63
2023/12/22 11:09:07;;;;;;;0.00;0.00;;;;;;;7.25;100.00;147986.19;4977914;28;20692;-63
2023/12/22 11:11:35;;;;;;;0.00;0.00;;;;;;;7.25;100.00;147986.19;4976106;28;20233;-63
2023/12/22 11:14:04;;;;;;;0.00;0.00;;;;;;;7.28;100.00;147992.44;4976343;28;20226;-63
2023/12/22 11:16:33;;;;;;;0.00;0.00;;;;;;;7.27;100.00;147991.16;4974645;28;20924;-63
2023/12/22 11:19:01;;;;;;;0.00;0.00;;;;;;;7.23;100.00;147981.22;4976700;28;20229;-63
2023/12/22 11:21:29;;;;;;;0.00;0.00;;;;;;;7.19;100.00;147971.28;4974241;28;20317;-63
2023/12/22 11:23:57;;;;;;;0.00;0.00;;;;;;;7.19;100.00;147971.28;4965136;28;20268;-63
2023/12/22 11:26:25;;;;;;;0.00;0.00;;;;;;;7.29;100.00;147994.91;4975521;28;20764;-63
2023/12/22 11:28:53;;;;;;;0.00;0.00;;;;;;;7.21;100.00;147976.25;4978551;28;20263;-63
2023/12/22 11:31:21;;;;;;;0.00;0.00;;;;;;;7.17;100.00;147966.31;4970019;28;20568;-63